sensor_id;sensor_type;location;lat;lon;timestamp;temperature;humidity
30206;DHT22;17010;51.306;3.150;2023-02-07T00:00:39;1.40;99.90
30206;DHT22;17010;51.306;3.150;2023-02-07T00:03:05;1.40;99.90
30206;DHT22;17010;51.306;3.150;2023-02-07T00:05:31;1.40;99.90
30206;DHT22;17010;51.306;3.150;2023-02-07T00:07:57;1.30;99.90
30206;DHT22;17010;51.306;3.150;2023-02-07T00:10:24;1.30;99.90
30206;DHT22;17010;51.306;3.150;2023-02-07T00:12:50;1.30;99.90
30206;DHT22;17010;51.306;3.150;2023-02-07T00:15:16;1.20;99.90
30206;DHT22;17010;51.306;3.150;2023-02-07T00:17:42;1.20;99.90
30206;DHT22;17010;51.306;3.150;2023-02-07T00:20:09;1.20;99.90
30206;DHT22;17010;51.306;3.150;2023-02-07T00:22:36;1.20;99.90
30206;DHT22;17010;51.306;3.150;2023-02-07T00:25:02;1.10;99.90
30206;DHT22;17010;51.306;3.150;2023-02-07T00:27:28;1.10;99.90
30206;DHT22;17010;51.306;3.150;2023-02-07T00:29:54;1.10;99.90
30206;DHT22;17010;51.306;3.150;2023-02-07T00:32:20;1.10;99.90
30206;DHT22;17010;51.306;3.150;2023-02-07T00:34:46;1.10;99.90
30206;DHT22;17010;51.306;3.150;2023-02-07T00:37:13;1.10;99.90
30206;DHT22;17010;51.306;3.150;2023-02-07T00:39:39;1.10;99.90
30206;DHT22;17010;51.306;3.150;2023-02-07T00:42:05;1.00;99.90
30206;DHT22;17010;51.306;3.150;2023-02-07T00:44:31;1.00;99.90
30206;DHT22;17010;51.306;3.150;2023-02-07T00:46:58;1.10;99.90
30206;DHT22;17010;51.306;3.150;2023-02-07T00:49:25;1.10;99.90
30206;DHT22;17010;51.306;3.150;2023-02-07T00:51:51;1.00;99.90
30206;DHT22;17010;51.306;3.150;2023-02-07T00:54:17;1.00;99.90
30206;DHT22;17010;51.306;3.150;2023-02-07T00:56:44;1.00;99.90
30206;DHT22;17010;51.306;3.150;2023-02-07T00:59:10;1.00;99.90
30206;DHT22;17010;51.306;3.150;2023-02-07T01:01:36;1.00;99.90
30206;DHT22;17010;51.306;3.150;2023-02-07T01:04:02;0.90;99.90
30206;DHT22;17010;51.306;3.150;2023-02-07T01:06:29;0.90;99.90
30206;DHT22;17010;51.306;3.150;2023-02-07T01:08:59;0.90;99.90
30206;DHT22;17010;51.306;3.150;2023-02-07T01:11:26;0.90;99.90
30206;DHT22;17010;51.306;3.150;2023-02-07T01:13:52;0.90;99.90
30206;DHT22;17010;51.306;3.150;2023-02-07T01:16:25;0.80;99.90
30206;DHT22;17010;51.306;3.150;2023-02-07T01:18:51;0.80;99.90
30206;DHT22;17010;51.306;3.150;2023-02-07T01:21:23;0.80;99.90
30206;DHT22;17010;51.306;3.150;2023-02-07T01:23:49;0.80;99.90
30206;DHT22;17010;51.306;3.150;2023-02-07T01:26:16;0.80;99.90
30206;DHT22;17010;51.306;3.150;2023-02-07T01:28:42;0.80;99.90
30206;DHT22;17010;51.306;3.150;2023-02-07T01:31:10;0.70;99.90
30206;DHT22;17010;51.306;3.150;2023-02-07T01:33:36;0.70;99.90
30206;DHT22;17010;51.306;3.150;2023-02-07T01:36:08;0.70;99.90
30206;DHT22;17010;51.306;3.150;2023-02-07T01:38:34;0.70;99.90
30206;DHT22;17010;51.306;3.150;2023-02-07T01:41:00;0.70;99.90
30206;DHT22;17010;51.306;3.150;2023-02-07T01:43:27;0.60;99.90
30206;DHT22;17010;51.306;3.150;2023-02-07T01:45:53;0.60;99.90
30206;DHT22;17010;51.306;3.150;2023-02-07T01:48:33;0.60;99.90
30206;DHT22;17010;51.306;3.150;2023-02-07T01:51:05;0.60;99.90
30206;DHT22;17010;51.306;3.150;2023-02-07T01:53:32;0.50;99.90
30206;DHT22;17010;51.306;3.150;2023-02-07T01:56:01;0.50;99.90
30206;DHT22;17010;51.306;3.150;2023-02-07T01:58:30;0.50;99.90
30206;DHT22;17010;51.306;3.150;2023-02-07T02:00:58;0.50;99.90
30206;DHT22;17010;51.306;3.150;2023-02-07T02:03:25;0.50;99.90
30206;DHT22;17010;51.306;3.150;2023-02-07T02:05:52;0.50;99.90
30206;DHT22;17010;51.306;3.150;2023-02-07T02:08:21;0.50;99.90
30206;DHT22;17010;51.306;3.150;2023-02-07T02:11:10;0.50;99.90
30206;DHT22;17010;51.306;3.150;2023-02-07T02:13:44;0.50;99.90
30206;DHT22;17010;51.306;3.150;2023-02-07T02:16:28;0.50;99.90
30206;DHT22;17010;51.306;3.150;2023-02-07T02:19:15;0.50;99.90
30206;DHT22;17010;51.306;3.150;2023-02-07T02:31:00;0.40;99.90
30206;DHT22;17010;51.306;3.150;2023-02-07T02:37:04;0.40;99.90
30206;DHT22;17010;51.306;3.150;2023-02-07T02:39:33;0.40;99.90
30206;DHT22;17010;51.306;3.150;2023-02-07T02:42:18;0.40;99.90
30206;DHT22;17010;51.306;3.150;2023-02-07T02:44:52;0.40;99.90
30206;DHT22;17010;51.306;3.150;2023-02-07T02:47:19;0.30;99.90
30206;DHT22;17010;51.306;3.150;2023-02-07T02:49:46;0.30;99.90
30206;DHT22;17010;51.306;3.150;2023-02-07T02:52:12;0.30;99.90
30206;DHT22;17010;51.306;3.150;2023-02-07T02:54:40;0.30;99.90
30206;DHT22;17010;51.306;3.150;2023-02-07T03:08:38;0.30;99.90
30206;DHT22;17010;51.306;3.150;2023-02-07T03:11:14;0.40;99.90
30206;DHT22;17010;51.306;3.150;2023-02-07T03:16:29;0.30;99.90
30206;DHT22;17010;51.306;3.150;2023-02-07T03:19:38;0.30;99.90
30206;DHT22;17010;51.306;3.150;2023-02-07T03:21:58;0.30;99.90
30206;DHT22;17010;51.306;3.150;2023-02-07T03:24:31;0.30;99.90
30206;DHT22;17010;51.306;3.150;2023-02-07T03:27:00;0.30;99.90
30206;DHT22;17010;51.306;3.150;2023-02-07T03:29:28;0.30;99.90
30206;DHT22;17010;51.306;3.150;2023-02-07T03:31:57;0.30;99.90
30206;DHT22;17010;51.306;3.150;2023-02-07T03:34:49;0.30;99.90
30206;DHT22;17010;51.306;3.150;2023-02-07T03:39:48;0.30;99.90
30206;DHT22;17010;51.306;3.150;2023-02-07T03:42:30;0.40;99.90
30206;DHT22;17010;51.306;3.150;2023-02-07T03:44:57;0.30;99.90
30206;DHT22;17010;51.306;3.150;2023-02-07T03:47:25;0.30;99.90
30206;DHT22;17010;51.306;3.150;2023-02-07T03:49:51;0.30;99.90
30206;DHT22;17010;51.306;3.150;2023-02-07T03:52:17;0.30;99.90
30206;DHT22;17010;51.306;3.150;2023-02-07T03:54:43;0.30;99.90
30206;DHT22;17010;51.306;3.150;2023-02-07T03:57:09;0.30;99.90
30206;DHT22;17010;51.306;3.150;2023-02-07T03:59:35;0.30;99.90
30206;DHT22;17010;51.306;3.150;2023-02-07T04:02:02;0.20;99.90
30206;DHT22;17010;51.306;3.150;2023-02-07T04:04:28;0.20;99.90
30206;DHT22;17010;51.306;3.150;2023-02-07T04:06:54;0.20;99.90
30206;DHT22;17010;51.306;3.150;2023-02-07T04:09:21;0.20;99.90
30206;DHT22;17010;51.306;3.150;2023-02-07T04:11:48;0.20;99.90
30206;DHT22;17010;51.306;3.150;2023-02-07T04:14:15;0.20;99.90
30206;DHT22;17010;51.306;3.150;2023-02-07T04:16:41;0.10;99.90
30206;DHT22;17010;51.306;3.150;2023-02-07T04:19:07;0.20;99.90
30206;DHT22;17010;51.306;3.150;2023-02-07T04:21:33;0.10;99.90
30206;DHT22;17010;51.306;3.150;2023-02-07T04:24:00;0.10;99.90
30206;DHT22;17010;51.306;3.150;2023-02-07T04:26:26;0.10;99.90
30206;DHT22;17010;51.306;3.150;2023-02-07T04:28:52;0.10;99.90
30206;DHT22;17010;51.306;3.150;2023-02-07T04:31:18;0.10;99.90
30206;DHT22;17010;51.306;3.150;2023-02-07T04:33:44;0.10;99.90
30206;DHT22;17010;51.306;3.150;2023-02-07T04:36:10;0.10;99.90
30206;DHT22;17010;51.306;3.150;2023-02-07T04:38:36;0.10;99.90
30206;DHT22;17010;51.306;3.150;2023-02-07T04:41:03;0.10;99.90
30206;DHT22;17010;51.306;3.150;2023-02-07T04:43:34;0.10;99.90
30206;DHT22;17010;51.306;3.150;2023-02-07T04:46:01;0.10;99.90
30206;DHT22;17010;51.306;3.150;2023-02-07T04:48:27;0.10;99.90
30206;DHT22;17010;51.306;3.150;2023-02-07T04:50:53;0.00;99.90
30206;DHT22;17010;51.306;3.150;2023-02-07T04:53:19;0.10;99.90
30206;DHT22;17010;51.306;3.150;2023-02-07T04:55:50;0.10;99.90
30206;DHT22;17010;51.306;3.150;2023-02-07T04:58:17;0.00;99.90
30206;DHT22;17010;51.306;3.150;2023-02-07T05:00:44;0.00;99.90
30206;DHT22;17010;51.306;3.150;2023-02-07T05:03:10;0.00;99.90
30206;DHT22;17010;51.306;3.150;2023-02-07T05:05:40;0.00;99.90
30206;DHT22;17010;51.306;3.150;2023-02-07T05:08:07;0.00;99.90
30206;DHT22;17010;51.306;3.150;2023-02-07T05:10:34;0.00;99.90
30206;DHT22;17010;51.306;3.150;2023-02-07T05:13:00;0.00;99.90
30206;DHT22;17010;51.306;3.150;2023-02-07T05:15:27;-0.10;99.90
30206;DHT22;17010;51.306;3.150;2023-02-07T05:17:53;-0.10;99.90
30206;DHT22;17010;51.306;3.150;2023-02-07T05:20:19;-0.10;99.90
30206;DHT22;17010;51.306;3.150;2023-02-07T05:22:45;-0.10;99.90
30206;DHT22;17010;51.306;3.150;2023-02-07T05:25:11;-0.10;99.90
30206;DHT22;17010;51.306;3.150;2023-02-07T05:27:38;-0.10;99.90
30206;DHT22;17010;51.306;3.150;2023-02-07T05:30:05;-0.10;99.90
30206;DHT22;17010;51.306;3.150;2023-02-07T05:32:31;-0.20;99.90
30206;DHT22;17010;51.306;3.150;2023-02-07T05:35:16;-0.20;99.90
30206;DHT22;17010;51.306;3.150;2023-02-07T05:37:42;-0.20;99.90
30206;DHT22;17010;51.306;3.150;2023-02-07T05:40:09;-0.20;99.90
30206;DHT22;17010;51.306;3.150;2023-02-07T05:42:35;-0.20;99.90
30206;DHT22;17010;51.306;3.150;2023-02-07T05:45:01;-0.20;99.90
30206;DHT22;17010;51.306;3.150;2023-02-07T05:47:27;-0.30;99.90
30206;DHT22;17010;51.306;3.150;2023-02-07T05:49:54;-0.30;99.90
30206;DHT22;17010;51.306;3.150;2023-02-07T05:52:20;-0.30;99.90
30206;DHT22;17010;51.306;3.150;2023-02-07T05:54:46;-0.30;99.90
30206;DHT22;17010;51.306;3.150;2023-02-07T05:57:12;-0.30;99.90
30206;DHT22;17010;51.306;3.150;2023-02-07T05:59:38;-0.40;99.90
30206;DHT22;17010;51.306;3.150;2023-02-07T06:02:04;-0.40;99.90
30206;DHT22;17010;51.306;3.150;2023-02-07T06:04:30;-0.40;99.90
30206;DHT22;17010;51.306;3.150;2023-02-07T06:06:57;-0.40;99.90
30206;DHT22;17010;51.306;3.150;2023-02-07T06:09:23;-0.40;99.90
30206;DHT22;17010;51.306;3.150;2023-02-07T06:11:49;-0.40;99.90
30206;DHT22;17010;51.306;3.150;2023-02-07T06:14:15;-0.40;99.90
30206;DHT22;17010;51.306;3.150;2023-02-07T06:16:41;-0.40;99.90
30206;DHT22;17010;51.306;3.150;2023-02-07T06:19:09;-0.40;99.90
30206;DHT22;17010;51.306;3.150;2023-02-07T06:21:36;-0.50;99.90
30206;DHT22;17010;51.306;3.150;2023-02-07T06:24:02;-0.50;99.90
30206;DHT22;17010;51.306;3.150;2023-02-07T06:26:28;-0.50;99.90
30206;DHT22;17010;51.306;3.150;2023-02-07T06:28:54;-0.50;99.90
30206;DHT22;17010;51.306;3.150;2023-02-07T06:31:20;-0.50;99.90
30206;DHT22;17010;51.306;3.150;2023-02-07T06:33:46;-0.50;99.90
30206;DHT22;17010;51.306;3.150;2023-02-07T06:36:12;-0.40;99.90
30206;DHT22;17010;51.306;3.150;2023-02-07T06:38:39;-0.40;99.90
30206;DHT22;17010;51.306;3.150;2023-02-07T06:41:05;-0.40;99.90
30206;DHT22;17010;51.306;3.150;2023-02-07T06:43:36;-0.30;99.90
30206;DHT22;17010;51.306;3.150;2023-02-07T06:46:03;-0.20;99.90
30206;DHT22;17010;51.306;3.150;2023-02-07T06:48:29;-0.10;99.90
30206;DHT22;17010;51.306;3.150;2023-02-07T06:50:55;-0.10;99.90
30206;DHT22;17010;51.306;3.150;2023-02-07T06:53:21;0.00;99.90
30206;DHT22;17010;51.306;3.150;2023-02-07T06:55:48;0.00;99.90
30206;DHT22;17010;51.306;3.150;2023-02-07T06:58:14;0.00;99.90
30206;DHT22;17010;51.306;3.150;2023-02-07T07:00:40;0.00;99.90
30206;DHT22;17010;51.306;3.150;2023-02-07T07:03:11;0.00;99.90
30206;DHT22;17010;51.306;3.150;2023-02-07T07:05:38;0.00;99.90
30206;DHT22;17010;51.306;3.150;2023-02-07T07:08:04;0.00;99.90
30206;DHT22;17010;51.306;3.150;2023-02-07T07:10:30;-0.10;99.90
30206;DHT22;17010;51.306;3.150;2023-02-07T07:12:56;-0.10;99.90
30206;DHT22;17010;51.306;3.150;2023-02-07T07:15:22;-0.10;99.90
30206;DHT22;17010;51.306;3.150;2023-02-07T07:17:48;-0.20;99.90
30206;DHT22;17010;51.306;3.150;2023-02-07T07:20:14;-0.20;99.90
30206;DHT22;17010;51.306;3.150;2023-02-07T07:22:41;-0.20;99.90
30206;DHT22;17010;51.306;3.150;2023-02-07T07:25:07;-0.20;99.90
30206;DHT22;17010;51.306;3.150;2023-02-07T07:27:33;-0.20;99.90
30206;DHT22;17010;51.306;3.150;2023-02-07T07:30:00;-0.20;99.90
30206;DHT22;17010;51.306;3.150;2023-02-07T07:32:26;-0.20;99.90
30206;DHT22;17010;51.306;3.150;2023-02-07T07:34:52;-0.20;99.90
30206;DHT22;17010;51.306;3.150;2023-02-07T07:37:19;-0.10;99.90
30206;DHT22;17010;51.306;3.150;2023-02-07T07:39:45;0.00;99.90
30206;DHT22;17010;51.306;3.150;2023-02-07T07:42:12;0.10;99.90
30206;DHT22;17010;51.306;3.150;2023-02-07T07:44:38;0.10;99.90
30206;DHT22;17010;51.306;3.150;2023-02-07T07:47:04;0.20;99.90
30206;DHT22;17010;51.306;3.150;2023-02-07T07:49:30;0.30;99.90
30206;DHT22;17010;51.306;3.150;2023-02-07T07:51:56;0.40;99.90
30206;DHT22;17010;51.306;3.150;2023-02-07T07:54:22;0.60;99.90
30206;DHT22;17010;51.306;3.150;2023-02-07T07:56:49;0.70;99.90
30206;DHT22;17010;51.306;3.150;2023-02-07T07:59:15;0.80;99.90
30206;DHT22;17010;51.306;3.150;2023-02-07T08:01:42;1.00;99.90
30206;DHT22;17010;51.306;3.150;2023-02-07T08:04:08;1.10;99.90
30206;DHT22;17010;51.306;3.150;2023-02-07T08:06:34;1.20;99.90
30206;DHT22;17010;51.306;3.150;2023-02-07T08:09:00;1.40;99.90
30206;DHT22;17010;51.306;3.150;2023-02-07T08:11:26;1.50;99.90
30206;DHT22;17010;51.306;3.150;2023-02-07T08:13:52;1.70;99.90
30206;DHT22;17010;51.306;3.150;2023-02-07T08:16:19;1.80;99.90
30206;DHT22;17010;51.306;3.150;2023-02-07T08:18:45;1.90;99.90
30206;DHT22;17010;51.306;3.150;2023-02-07T08:21:11;2.10;99.90
30206;DHT22;17010;51.306;3.150;2023-02-07T08:23:37;2.20;99.90
30206;DHT22;17010;51.306;3.150;2023-02-07T08:26:04;2.40;99.90
30206;DHT22;17010;51.306;3.150;2023-02-07T08:28:30;2.40;99.90
30206;DHT22;17010;51.306;3.150;2023-02-07T08:31:01;2.60;99.90
30206;DHT22;17010;51.306;3.150;2023-02-07T08:33:27;2.90;99.90
30206;DHT22;17010;51.306;3.150;2023-02-07T08:35:53;3.30;99.90
30206;DHT22;17010;51.306;3.150;2023-02-07T08:38:19;3.60;99.90
30206;DHT22;17010;51.306;3.150;2023-02-07T08:40:45;4.00;99.90
30206;DHT22;17010;51.306;3.150;2023-02-07T08:43:13;4.30;99.90
30206;DHT22;17010;51.306;3.150;2023-02-07T08:45:40;4.50;99.90
30206;DHT22;17010;51.306;3.150;2023-02-07T08:48:06;4.60;99.90
30206;DHT22;17010;51.306;3.150;2023-02-07T08:50:33;4.80;99.90
30206;DHT22;17010;51.306;3.150;2023-02-07T08:52:59;5.00;99.90
30206;DHT22;17010;51.306;3.150;2023-02-07T08:55:26;5.20;99.90
30206;DHT22;17010;51.306;3.150;2023-02-07T08:57:52;5.40;99.90
30206;DHT22;17010;51.306;3.150;2023-02-07T09:00:18;5.60;99.90
30206;DHT22;17010;51.306;3.150;2023-02-07T09:02:45;5.80;99.90
30206;DHT22;17010;51.306;3.150;2023-02-07T09:05:11;6.00;99.90
30206;DHT22;17010;51.306;3.150;2023-02-07T09:07:37;6.00;99.90
30206;DHT22;17010;51.306;3.150;2023-02-07T09:10:05;6.10;99.90
30206;DHT22;17010;51.306;3.150;2023-02-07T09:12:32;6.10;99.90
30206;DHT22;17010;51.306;3.150;2023-02-07T09:14:59;6.10;99.90
30206;DHT22;17010;51.306;3.150;2023-02-07T09:17:25;6.20;99.90
30206;DHT22;17010;51.306;3.150;2023-02-07T09:19:51;6.30;99.90
30206;DHT22;17010;51.306;3.150;2023-02-07T09:22:17;6.40;99.90
30206;DHT22;17010;51.306;3.150;2023-02-07T09:24:43;6.60;99.90
30206;DHT22;17010;51.306;3.150;2023-02-07T09:27:10;6.60;99.90
30206;DHT22;17010;51.306;3.150;2023-02-07T09:29:36;6.60;99.90
30206;DHT22;17010;51.306;3.150;2023-02-07T09:32:02;6.50;99.90
30206;DHT22;17010;51.306;3.150;2023-02-07T09:34:32;6.30;99.90
30206;DHT22;17010;51.306;3.150;2023-02-07T09:37:02;6.10;99.90
30206;DHT22;17010;51.306;3.150;2023-02-07T09:39:28;5.90;99.90
30206;DHT22;17010;51.306;3.150;2023-02-07T09:42:27;5.70;99.90
30206;DHT22;17010;51.306;3.150;2023-02-07T09:45:12;5.60;99.90
30206;DHT22;17010;51.306;3.150;2023-02-07T09:47:42;5.50;99.90
30206;DHT22;17010;51.306;3.150;2023-02-07T09:50:22;5.30;99.90
30206;DHT22;17010;51.306;3.150;2023-02-07T09:53:01;5.30;99.90
30206;DHT22;17010;51.306;3.150;2023-02-07T09:55:57;5.20;99.90
30206;DHT22;17010;51.306;3.150;2023-02-07T09:58:36;5.20;99.90
30206;DHT22;17010;51.306;3.150;2023-02-07T10:01:23;5.10;99.90
30206;DHT22;17010;51.306;3.150;2023-02-07T10:04:04;5.10;99.90
30206;DHT22;17010;51.306;3.150;2023-02-07T10:06:32;5.10;99.90
30206;DHT22;17010;51.306;3.150;2023-02-07T10:09:00;5.00;99.90
30206;DHT22;17010;51.306;3.150;2023-02-07T10:16:56;5.30;99.90
30206;DHT22;17010;51.306;3.150;2023-02-07T10:22:30;5.80;99.90
30206;DHT22;17010;51.306;3.150;2023-02-07T10:30:51;6.40;99.90
30206;DHT22;17010;51.306;3.150;2023-02-07T10:33:23;6.50;99.90
30206;DHT22;17010;51.306;3.150;2023-02-07T10:35:50;6.50;99.90
30206;DHT22;17010;51.306;3.150;2023-02-07T10:38:27;6.30;99.90
30206;DHT22;17010;51.306;3.150;2023-02-07T10:41:17;6.30;99.90
30206;DHT22;17010;51.306;3.150;2023-02-07T10:43:45;6.10;99.90
30206;DHT22;17010;51.306;3.150;2023-02-07T10:46:17;6.00;99.90
30206;DHT22;17010;51.306;3.150;2023-02-07T10:48:45;5.90;99.90
30206;DHT22;17010;51.306;3.150;2023-02-07T10:56:31;5.70;99.90
30206;DHT22;17010;51.306;3.150;2023-02-07T10:58:58;5.70;99.90
30206;DHT22;17010;51.306;3.150;2023-02-07T11:01:29;5.70;99.90
30206;DHT22;17010;51.306;3.150;2023-02-07T11:03:56;5.70;99.90
30206;DHT22;17010;51.306;3.150;2023-02-07T11:06:31;5.60;99.90
30206;DHT22;17010;51.306;3.150;2023-02-07T11:11:38;5.60;99.90
30206;DHT22;17010;51.306;3.150;2023-02-07T11:14:06;5.60;99.90
30206;DHT22;17010;51.306;3.150;2023-02-07T11:16:32;5.60;99.90
30206;DHT22;17010;51.306;3.150;2023-02-07T11:19:04;5.60;99.90
30206;DHT22;17010;51.306;3.150;2023-02-07T11:21:42;5.60;99.90
30206;DHT22;17010;51.306;3.150;2023-02-07T11:24:17;5.60;99.90
30206;DHT22;17010;51.306;3.150;2023-02-07T11:27:12;5.60;99.90
30206;DHT22;17010;51.306;3.150;2023-02-07T11:29:54;5.50;99.90
30206;DHT22;17010;51.306;3.150;2023-02-07T11:32:21;5.50;99.90
30206;DHT22;17010;51.306;3.150;2023-02-07T11:39:54;5.60;99.90
30206;DHT22;17010;51.306;3.150;2023-02-07T11:42:27;5.60;99.90
30206;DHT22;17010;51.306;3.150;2023-02-07T11:44:55;5.60;99.90
30206;DHT22;17010;51.306;3.150;2023-02-07T11:47:23;5.70;99.90
30206;DHT22;17010;51.306;3.150;2023-02-07T11:49:52;5.70;99.90
30206;DHT22;17010;51.306;3.150;2023-02-07T11:52:19;5.70;99.90
30206;DHT22;17010;51.306;3.150;2023-02-07T11:54:55;5.50;99.90
30206;DHT22;17010;51.306;3.150;2023-02-07T11:57:22;5.60;99.90
30206;DHT22;17010;51.306;3.150;2023-02-07T12:02:19;5.60;99.90
30206;DHT22;17010;51.306;3.150;2023-02-07T12:04:47;5.60;99.90
30206;DHT22;17010;51.306;3.150;2023-02-07T12:07:28;5.60;99.90
30206;DHT22;17010;51.306;3.150;2023-02-07T12:10:02;5.50;99.90
30206;DHT22;17010;51.306;3.150;2023-02-07T12:15:13;5.40;99.90
30206;DHT22;17010;51.306;3.150;2023-02-07T12:20:34;5.50;99.90
30206;DHT22;17010;51.306;3.150;2023-02-07T12:25:53;5.30;99.90
30206;DHT22;17010;51.306;3.150;2023-02-07T12:28:43;5.30;99.90
30206;DHT22;17010;51.306;3.150;2023-02-07T12:31:26;5.30;99.90
30206;DHT22;17010;51.306;3.150;2023-02-07T12:34:04;5.50;99.90
30206;DHT22;17010;51.306;3.150;2023-02-07T12:36:38;5.50;99.90
30206;DHT22;17010;51.306;3.150;2023-02-07T12:39:42;5.40;99.90
30206;DHT22;17010;51.306;3.150;2023-02-07T12:42:30;5.50;99.90
30206;DHT22;17010;51.306;3.150;2023-02-07T12:44:59;5.60;99.90
30206;DHT22;17010;51.306;3.150;2023-02-07T12:47:59;5.70;99.90
30206;DHT22;17010;51.306;3.150;2023-02-07T12:50:42;5.80;99.90
30206;DHT22;17010;51.306;3.150;2023-02-07T12:54:04;5.80;99.90
30206;DHT22;17010;51.306;3.150;2023-02-07T13:06:52;5.90;99.90
30206;DHT22;17010;51.306;3.150;2023-02-07T13:09:32;6.00;99.90
30206;DHT22;17010;51.306;3.150;2023-02-07T13:12:06;5.90;99.90
30206;DHT22;17010;51.306;3.150;2023-02-07T13:20:17;5.90;99.90
30206;DHT22;17010;51.306;3.150;2023-02-07T13:23:01;5.80;99.90
30206;DHT22;17010;51.306;3.150;2023-02-07T13:25:40;5.80;99.90
30206;DHT22;17010;51.306;3.150;2023-02-07T13:28:22;5.90;99.90
30206;DHT22;17010;51.306;3.150;2023-02-07T13:30:51;6.10;99.90
30206;DHT22;17010;51.306;3.150;2023-02-07T13:35:51;6.40;99.90
30206;DHT22;17010;51.306;3.150;2023-02-07T13:38:26;6.50;99.90
30206;DHT22;17010;51.306;3.150;2023-02-07T13:43:30;6.90;99.90
30206;DHT22;17010;51.306;3.150;2023-02-07T13:49:23;7.00;99.90
30206;DHT22;17010;51.306;3.150;2023-02-07T13:52:13;7.00;99.90
30206;DHT22;17010;51.306;3.150;2023-02-07T13:57:21;6.70;99.90
30206;DHT22;17010;51.306;3.150;2023-02-07T14:02:48;6.80;99.90
30206;DHT22;17010;51.306;3.150;2023-02-07T14:05:33;6.90;99.90
30206;DHT22;17010;51.306;3.150;2023-02-07T14:08:25;6.90;99.90
30206;DHT22;17010;51.306;3.150;2023-02-07T14:10:54;7.00;99.90
30206;DHT22;17010;51.306;3.150;2023-02-07T14:18:46;6.80;99.90
30206;DHT22;17010;51.306;3.150;2023-02-07T14:37:59;6.50;99.90
30206;DHT22;17010;51.306;3.150;2023-02-07T14:40:27;6.50;99.90
30206;DHT22;17010;51.306;3.150;2023-02-07T14:43:00;6.30;99.90
30206;DHT22;17010;51.306;3.150;2023-02-07T14:45:32;6.30;99.90
30206;DHT22;17010;51.306;3.150;2023-02-07T14:47:59;6.20;99.90
30206;DHT22;17010;51.306;3.150;2023-02-07T14:50:26;6.10;99.90
30206;DHT22;17010;51.306;3.150;2023-02-07T14:52:59;6.10;99.90
30206;DHT22;17010;51.306;3.150;2023-02-07T14:55:35;6.10;99.90
30206;DHT22;17010;51.306;3.150;2023-02-07T14:58:07;6.10;99.90
30206;DHT22;17010;51.306;3.150;2023-02-07T15:00:38;6.10;99.90
30206;DHT22;17010;51.306;3.150;2023-02-07T15:03:19;6.20;99.90
30206;DHT22;17010;51.306;3.150;2023-02-07T15:05:59;6.10;99.90
30206;DHT22;17010;51.306;3.150;2023-02-07T15:08:30;6.00;99.90
30206;DHT22;17010;51.306;3.150;2023-02-07T15:18:40;6.00;99.90
30206;DHT22;17010;51.306;3.150;2023-02-07T15:21:44;6.00;99.90
30206;DHT22;17010;51.306;3.150;2023-02-07T15:24:27;6.00;99.90
30206;DHT22;17010;51.306;3.150;2023-02-07T15:26:57;6.00;99.90
30206;DHT22;17010;51.306;3.150;2023-02-07T15:29:27;5.90;99.90
30206;DHT22;17010;51.306;3.150;2023-02-07T15:31:53;5.90;99.90
30206;DHT22;17010;51.306;3.150;2023-02-07T15:34:42;5.90;99.90
30206;DHT22;17010;51.306;3.150;2023-02-07T15:37:20;5.80;99.90
30206;DHT22;17010;51.306;3.150;2023-02-07T15:39:51;5.70;99.90
30206;DHT22;17010;51.306;3.150;2023-02-07T15:42:18;5.70;99.90
30206;DHT22;17010;51.306;3.150;2023-02-07T15:44:48;5.60;99.90
30206;DHT22;17010;51.306;3.150;2023-02-07T15:50:04;5.60;99.90
30206;DHT22;17010;51.306;3.150;2023-02-07T15:52:40;5.60;99.90
30206;DHT22;17010;51.306;3.150;2023-02-07T15:55:22;5.50;99.90
30206;DHT22;17010;51.306;3.150;2023-02-07T15:57:49;5.50;99.90
30206;DHT22;17010;51.306;3.150;2023-02-07T16:00:17;5.40;99.90
30206;DHT22;17010;51.306;3.150;2023-02-07T16:02:45;5.40;99.90
30206;DHT22;17010;51.306;3.150;2023-02-07T16:05:30;5.40;99.90
30206;DHT22;17010;51.306;3.150;2023-02-07T16:07:57;5.30;99.90
30206;DHT22;17010;51.306;3.150;2023-02-07T16:10:31;5.30;99.90
30206;DHT22;17010;51.306;3.150;2023-02-07T16:13:08;5.20;99.90
30206;DHT22;17010;51.306;3.150;2023-02-07T16:15:37;5.20;99.90
30206;DHT22;17010;51.306;3.150;2023-02-07T16:18:04;5.20;99.90
30206;DHT22;17010;51.306;3.150;2023-02-07T16:20:33;5.10;99.90
30206;DHT22;17010;51.306;3.150;2023-02-07T16:23:02;5.10;99.90
30206;DHT22;17010;51.306;3.150;2023-02-07T16:25:31;5.10;99.90
30206;DHT22;17010;51.306;3.150;2023-02-07T16:27:58;5.10;99.90
30206;DHT22;17010;51.306;3.150;2023-02-07T16:30:30;5.00;99.90
30206;DHT22;17010;51.306;3.150;2023-02-07T16:32:57;4.90;99.90
30206;DHT22;17010;51.306;3.150;2023-02-07T16:35:25;4.80;99.90
30206;DHT22;17010;51.306;3.150;2023-02-07T16:37:52;4.80;99.90
30206;DHT22;17010;51.306;3.150;2023-02-07T16:40:19;4.70;99.90
30206;DHT22;17010;51.306;3.150;2023-02-07T16:42:47;4.60;99.90
30206;DHT22;17010;51.306;3.150;2023-02-07T16:45:19;4.60;99.90
30206;DHT22;17010;51.306;3.150;2023-02-07T16:47:46;4.50;99.90
30206;DHT22;17010;51.306;3.150;2023-02-07T16:50:27;4.50;99.90
30206;DHT22;17010;51.306;3.150;2023-02-07T16:52:54;4.40;99.90
30206;DHT22;17010;51.306;3.150;2023-02-07T16:55:26;4.30;99.90
30206;DHT22;17010;51.306;3.150;2023-02-07T16:57:53;4.30;99.90
30206;DHT22;17010;51.306;3.150;2023-02-07T17:00:22;4.20;99.90
30206;DHT22;17010;51.306;3.150;2023-02-07T17:02:50;4.10;99.90
30206;DHT22;17010;51.306;3.150;2023-02-07T17:05:17;4.10;99.90
30206;DHT22;17010;51.306;3.150;2023-02-07T17:07:44;4.00;99.90
30206;DHT22;17010;51.306;3.150;2023-02-07T17:12:42;3.90;99.90
30206;DHT22;17010;51.306;3.150;2023-02-07T17:15:08;3.80;99.90
30206;DHT22;17010;51.306;3.150;2023-02-07T17:17:34;3.70;99.90
30206;DHT22;17010;51.306;3.150;2023-02-07T17:20:00;3.70;99.90
30206;DHT22;17010;51.306;3.150;2023-02-07T17:22:26;3.60;99.90
30206;DHT22;17010;51.306;3.150;2023-02-07T17:24:53;3.60;99.90
30206;DHT22;17010;51.306;3.150;2023-02-07T17:27:19;3.60;99.90
30206;DHT22;17010;51.306;3.150;2023-02-07T17:29:45;3.50;99.90
30206;DHT22;17010;51.306;3.150;2023-02-07T17:32:11;3.50;99.90
30206;DHT22;17010;51.306;3.150;2023-02-07T17:34:37;3.40;99.90
30206;DHT22;17010;51.306;3.150;2023-02-07T17:37:04;3.40;99.90
30206;DHT22;17010;51.306;3.150;2023-02-07T17:39:30;3.30;99.90
30206;DHT22;17010;51.306;3.150;2023-02-07T17:41:56;3.30;99.90
30206;DHT22;17010;51.306;3.150;2023-02-07T17:44:22;3.20;99.90
30206;DHT22;17010;51.306;3.150;2023-02-07T17:46:50;3.20;99.90
30206;DHT22;17010;51.306;3.150;2023-02-07T17:49:16;3.20;99.90
30206;DHT22;17010;51.306;3.150;2023-02-07T17:51:42;3.10;99.90
30206;DHT22;17010;51.306;3.150;2023-02-07T17:54:09;3.10;99.90
30206;DHT22;17010;51.306;3.150;2023-02-07T17:56:35;3.00;99.90
30206;DHT22;17010;51.306;3.150;2023-02-07T17:59:03;2.90;99.90
30206;DHT22;17010;51.306;3.150;2023-02-07T18:01:30;2.80;99.90
30206;DHT22;17010;51.306;3.150;2023-02-07T18:03:57;2.70;99.90
30206;DHT22;17010;51.306;3.150;2023-02-07T18:06:26;2.70;99.90
30206;DHT22;17010;51.306;3.150;2023-02-07T18:08:53;2.60;99.90
30206;DHT22;17010;51.306;3.150;2023-02-07T18:11:19;2.50;99.90
30206;DHT22;17010;51.306;3.150;2023-02-07T18:13:47;2.40;99.90